Time;durP1;ratioP1;P1;durP2;ratioP2;P2;SDS_P1;SDS_P2;PMS_P1;PMS_P2;Temp;Humidity;BMP_temperature;BMP_pressure;BME280_temperature;BME280_humidity;BME280_pressure;Samples;Min_cycle;Max_cycle;Signal;HPM_P1;HPM_P2
2022/08/22 00:01:43;;;;;;;9.23;6.22;;;16.50;99.90;;;;;;5006065;28;20041;-81
2022/08/22 00:04:35;;;;;;;11.32;6.50;;;16.50;99.90;;;;;;5006794;28;20061;-82
2022/08/22 00:07:19;;;;;;;9.63;6.03;;;16.50;99.90;;;;;;4988538;28;20038;-83
2022/08/22 00:09:51;;;;;;;8.10;5.72;;;16.50;99.90;;;;;;5005978;28;20030;-82
2022/08/22 00:12:33;;;;;;;9.30;5.43;;;16.50;99.90;;;;;;4988616;28;20041;-82
2022/08/22 00:15:05;;;;;;;6.88;5.53;;;16.60;99.90;;;;;;4988584;28;20458;-82
2022/08/22 00:17:38;;;;;;;12.23;5.43;;;16.60;99.90;;;;;;5005848;28;20430;-82
2022/08/22 00:20:31;;;;;;;6.85;5.05;;;16.60;99.90;;;;;;5013176;28;20022;-83
2022/08/22 00:23:10;;;;;;;6.72;5.43;;;16.60;99.90;;;;;;4998333;28;20054;-84
2022/08/22 00:25:51;;;;;;;9.57;5.72;;;16.60;99.90;;;;;;4987655;28;20022;-83
2022/08/22 00:28:23;;;;;;;6.43;4.95;;;16.60;99.90;;;;;;5003782;28;20045;-81
2022/08/22 00:31:16;;;;;;;7.50;4.72;;;16.60;99.90;;;;;;4987172;28;20081;-82
2022/08/22 00:34:09;;;;;;;5.32;4.65;;;16.60;99.90;;;;;;5006525;28;20030;-83
2022/08/22 00:36:42;;;;;;;5.85;4.50;;;16.60;99.90;;;;;;5006371;28;20030;-81
2022/08/22 00:39:32;;;;;;;6.72;4.60;;;16.60;99.90;;;;;;5007847;28;20050;-81
2022/08/22 00:42:04;;;;;;;9.63;4.60;;;16.60;99.90;;;;;;5006244;28;20034;-82
2022/08/22 00:44:57;;;;;;;8.00;4.25;;;16.60;99.90;;;;;;5005241;28;20114;-81
2022/08/22 00:47:43;;;;;;;7.75;4.00;;;16.60;99.90;;;;;;4987506;28;20026;-81
2022/08/22 00:50:24;;;;;;;6.47;4.10;;;16.50;99.90;;;;;;5004394;28;20098;-82
2022/08/22 00:53:13;;;;;;;5.75;4.18;;;16.50;99.90;;;;;;4989492;28;20022;-81
2022/08/22 00:56:10;;;;;;;4.10;3.58;;;16.50;99.90;;;;;;5012134;28;20022;-82
2022/08/22 00:58:58;;;;;;;4.88;3.28;;;16.50;99.90;;;;;;5009736;28;20023;-82
2022/08/22 01:01:39;;;;;;;6.70;4.03;;;16.50;99.90;;;;;;5011318;28;20023;-81
2022/08/22 01:04:17;;;;;;;6.32;3.85;;;16.50;99.90;;;;;;4991871;28;20026;-79
2022/08/22 01:07:05;;;;;;;10.20;4.30;;;16.60;99.90;;;;;;4993553;28;20036;-80
2022/08/22 01:09:37;;;;;;;4.35;3.88;;;16.60;99.90;;;;;;5005720;28;20030;-81
2022/08/22 01:12:45;;;;;;;6.07;4.00;;;16.60;99.90;;;;;;4985093;28;20107;-82
2022/08/22 01:15:16;;;;;;;7.75;3.88;;;16.70;99.90;;;;;;5008905;28;20034;-82
2022/08/22 01:18:09;;;;;;;6.88;3.58;;;16.70;99.90;;;;;;5008552;28;20089;-82
2022/08/22 01:21:08;;;;;;;4.82;3.75;;;16.80;99.90;;;;;;4988743;28;20049;-80
2022/08/22 01:24:07;;;;;;;5.35;3.80;;;16.80;99.90;;;;;;5004961;28;20029;-81
2022/08/22 01:26:42;;;;;;;4.90;3.58;;;16.80;99.90;;;;;;5003926;28;20418;-79
2022/08/22 01:29:11;;;;;;;;;;;16.80;99.90;;;;;;5005481;28;20134;-80
2022/08/22 01:32:06;;;;;;;6.75;3.83;;;16.80;99.90;;;;;;4990616;28;19906;-82
2022/08/22 01:34:54;;;;;;;4.35;3.58;;;16.80;99.90;;;;;;4987823;28;20065;-81
2022/08/22 01:37:42;;;;;;;4.45;3.25;;;16.80;99.90;;;;;;5005678;28;20061;-82
2022/08/22 01:40:11;;;;;;;5.30;3.58;;;16.80;99.90;;;;;;5004346;28;20114;-79
2022/08/22 01:43:02;;;;;;;4.78;3.50;;;16.80;99.90;;;;;;5007863;28;20023;-80
2022/08/22 01:45:30;;;;;;;4.93;3.05;;;16.80;99.90;;;;;;5005430;28;20046;-80
2022/08/22 01:48:07;;;;;;;3.80;2.67;;;16.80;99.90;;;;;;5006419;28;20035;-83
2022/08/22 01:50:42;;;;;;;4.13;3.20;;;16.80;99.90;;;;;;5010274;28;20037;-82
2022/08/22 01:53:26;;;;;;;4.43;3.13;;;16.80;99.90;;;;;;5007579;28;20027;-81
2022/08/22 01:56:02;;;;;;;4.95;3.50;;;16.80;99.90;;;;;;4989593;28;20475;-79
2022/08/22 01:58:32;;;;;;;7.47;2.95;;;16.80;99.90;;;;;;4987767;28;20085;-83
2022/08/22 02:01:10;;;;;;;4.53;3.10;;;16.80;99.90;;;;;;5003637;28;20086;-80
2022/08/22 02:03:59;;;;;;;4.93;2.90;;;16.80;99.90;;;;;;5003448;28;20033;-80
2022/08/22 02:06:58;;;;;;;4.90;3.17;;;16.80;99.90;;;;;;4991515;28;20034;-80
2022/08/22 02:09:59;;;;;;;4.35;3.30;;;16.80;99.90;;;;;;5005555;28;20030;-82
2022/08/22 02:12:34;;;;;;;3.90;3.53;;;16.70;99.90;;;;;;4979304;28;20042;-81
2022/08/22 02:15:29;;;;;;;4.68;3.20;;;16.70;99.90;;;;;;5004569;28;20099;-81
2022/08/22 02:18:03;;;;;;;5.47;3.20;;;16.70;99.90;;;;;;5002604;28;20026;-81
2022/08/22 02:20:40;;;;;;;4.00;3.35;;;16.70;99.90;;;;;;4986712;28;20034;-82
2022/08/22 02:23:20;;;;;;;6.35;3.80;;;16.70;99.90;;;;;;5006108;28;20049;-82
2022/08/22 02:26:01;;;;;;;5.22;3.70;;;16.70;99.90;;;;;;4990105;28;20050;-81
2022/08/22 02:28:30;;;;;;;4.97;3.63;;;16.70;99.90;;;;;;5006559;28;20033;-79
2022/08/22 02:31:13;;;;;;;5.97;3.88;;;16.70;99.90;;;;;;5012642;28;20057;-82
2022/08/22 02:33:50;;;;;;;4.75;3.60;;;16.70;99.90;;;;;;5014336;28;20065;-80
2022/08/22 02:37:05;;;;;;;5.03;3.80;;;16.70;99.90;;;;;;5012221;28;20026;-81
2022/08/22 02:39:40;;;;;;;7.00;4.15;;;16.60;99.90;;;;;;4931658;29;20528;-80
2022/08/22 02:42:46;;;;;;;5.03;3.90;;;16.60;99.90;;;;;;4982759;28;20053;-81
2022/08/22 02:45:21;;;;;;;6.85;3.88;;;16.60;99.90;;;;;;4993983;28;20046;-81
2022/08/22 02:48:03;;;;;;;6.07;3.47;;;16.60;99.90;;;;;;5011174;28;20457;-81
2022/08/22 02:50:58;;;;;;;5.10;3.42;;;16.60;99.90;;;;;;5011245;28;20038;-79
2022/08/22 02:53:49;;;;;;;8.55;3.95;;;16.60;99.90;;;;;;5013055;28;20022;-81
2022/08/22 02:56:25;;;;;;;6.70;3.78;;;16.60;99.90;;;;;;5011688;28;20031;-81
2022/08/22 02:58:58;;;;;;;5.38;3.92;;;16.60;99.90;;;;;;5017592;28;20574;-81
2022/08/22 03:01:35;;;;;;;3.60;3.30;;;16.60;99.90;;;;;;4991806;28;20038;-80
2022/08/22 03:04:21;;;;;;;5.32;3.67;;;16.60;99.90;;;;;;5011599;28;20133;-79
2022/08/22 03:07:02;;;;;;;4.65;3.00;;;16.60;99.90;;;;;;5006244;28;20034;-83
2022/08/22 03:09:43;;;;;;;3.65;3.35;;;16.50;99.90;;;;;;5006340;28;20026;-82
2022/08/22 03:12:15;;;;;;;4.90;2.92;;;16.50;99.90;;;;;;5008275;28;20094;-81
2022/08/22 03:14:57;;;;;;;5.57;3.30;;;16.50;99.90;;;;;;4991700;28;20035;-83
2022/08/22 03:17:48;;;;;;;4.22;3.00;;;16.50;99.90;;;;;;5009501;28;20407;-83
2022/08/22 03:20:37;;;;;;;4.15;2.65;;;16.50;99.90;;;;;;4996413;28;20046;-81
2022/08/22 03:23:24;;;;;;;4.32;2.47;;;16.40;99.90;;;;;;5010275;28;20025;-82
2022/08/22 03:26:45;;;;;;;3.55;2.53;;;16.40;99.90;;;;;;5011652;28;20026;-80
2022/08/22 03:29:19;;;;;;;6.43;2.85;;;16.30;99.90;;;;;;4933733;29;20049;-82
2022/08/22 03:32:12;;;;;;;5.10;3.08;;;16.30;99.90;;;;;;5013578;28;20038;-81
2022/08/22 03:34:52;;;;;;;6.03;2.72;;;16.30;99.90;;;;;;5001095;28;20029;-82
2022/08/22 03:37:31;;;;;;;3.55;2.90;;;16.30;99.90;;;;;;5018908;28;20079;-83
2022/08/22 03:40:00;;;;;;;8.07;2.83;;;16.20;99.90;;;;;;5016464;28;20119;-81
2022/08/22 03:42:54;;;;;;;4.57;2.60;;;16.20;99.90;;;;;;5017843;28;20018;-83
2022/08/22 03:45:20;;;;;;;4.20;2.90;;;16.20;99.90;;;;;;5002058;28;20030;-81
2022/08/22 03:48:16;;;;;;;3.97;2.67;;;16.10;99.90;;;;;;5018783;28;20094;-82
2022/08/22 03:51:03;;;;;;;4.38;2.85;;;16.10;99.90;;;;;;5019198;28;20082;-82
2022/08/22 03:53:40;;;;;;;4.82;2.95;;;16.10;99.90;;;;;;5011843;28;20038;-81
2022/08/22 03:56:27;;;;;;;5.75;3.08;;;16.00;99.90;;;;;;5005402;28;20027;-81
2022/08/22 03:59:24;;;;;;;4.55;2.47;;;15.90;99.90;;;;;;5008707;28;20041;-81
2022/08/22 04:02:27;;;;;;;4.03;2.70;;;15.90;99.90;;;;;;5010504;28;20015;-83
2022/08/22 04:05:02;;;;;;;4.22;3.10;;;15.90;99.90;;;;;;5010503;28;20030;-80
2022/08/22 04:07:49;;;;;;;5.35;2.92;;;15.80;99.90;;;;;;4992760;28;20033;-82
2022/08/22 04:10:50;;;;;;;4.10;3.38;;;15.90;99.90;;;;;;4993723;28;20034;-80
2022/08/22 04:14:07;;;;;;;4.38;3.13;;;15.80;99.90;;;;;;5008946;28;20046;-81
2022/08/22 04:17:04;;;;;;;3.03;2.70;;;15.80;99.90;;;;;;5012308;28;20065;-82
2022/08/22 04:19:53;;;;;;;5.13;3.25;;;15.80;99.90;;;;;;5007598;28;20045;-82
2022/08/22 04:22:34;;;;;;;7.55;2.90;;;15.90;99.90;;;;;;5008613;28;20097;-80
2022/08/22 04:25:13;;;;;;;4.57;3.05;;;15.90;99.90;;;;;;5009854;28;20030;-81
2022/08/22 04:27:42;;;;;;;4.18;2.75;;;15.90;99.90;;;;;;5010263;28;20035;-82
2022/08/22 04:30:14;;;;;;;4.00;2.85;;;15.90;99.90;;;;;;5009103;28;20053;-83
2022/08/22 04:33:08;;;;;;;5.68;2.63;;;15.90;99.90;;;;;;5011358;28;20050;-81
2022/08/22 04:35:43;;;;;;;4.40;2.75;;;15.90;99.90;;;;;;5017703;28;20054;-82
2022/08/22 04:38:25;;;;;;;4.43;3.20;;;15.90;99.90;;;;;;5017537;28;20034;-82
2022/08/22 04:41:23;;;;;;;4.72;2.92;;;15.90;99.90;;;;;;5000623;28;20078;-81
2022/08/22 04:44:01;;;;;;;5.38;3.00;;;16.00;99.90;;;;;;5018329;28;20034;-81
2022/08/22 04:46:46;;;;;;;5.28;2.92;;;15.90;99.90;;;;;;4999888;28;20481;-83
2022/08/22 04:49:35;;;;;;;4.53;2.73;;;16.00;99.90;;;;;;5000772;28;20061;-83
2022/08/22 04:52:08;;;;;;;4.65;2.63;;;16.00;99.90;;;;;;4996999;28;20035;-82
2022/08/22 04:55:01;;;;;;;4.72;2.78;;;16.00;99.90;;;;;;4999071;28;20040;-81
2022/08/22 04:57:37;;;;;;;4.95;2.58;;;16.00;99.90;;;;;;5001797;28;20050;-81
2022/08/22 05:00:07;;;;;;;5.88;2.90;;;15.90;99.90;;;;;;5012523;28;20061;-82
2022/08/22 05:02:36;;;;;;;4.93;2.22;;;15.90;99.90;;;;;;4998136;28;20089;-82
2022/08/22 05:05:12;;;;;;;4.70;2.97;;;15.90;99.90;;;;;;4996983;28;20022;-82
2022/08/22 05:07:44;;;;;;;12.80;2.72;;;15.90;99.90;;;;;;4996684;28;20049;-84
2022/08/22 05:10:33;;;;;;;4.95;2.50;;;15.90;99.90;;;;;;4998131;28;20056;-81
2022/08/22 05:13:11;;;;;;;6.05;2.40;;;15.90;99.90;;;;;;5000737;28;20057;-82
2022/08/22 05:15:40;;;;;;;6.40;2.72;;;15.90;99.90;;;;;;5006467;28;20027;-83
2022/08/22 05:18:20;;;;;;;3.65;2.45;;;15.90;99.90;;;;;;5007856;28;20033;-83
2022/08/22 05:20:49;;;;;;;7.43;2.85;;;15.90;99.90;;;;;;5007208;28;20130;-84
2022/08/22 05:24:02;;;;;;;6.93;3.03;;;15.90;99.90;;;;;;4991805;28;20027;-83
2022/08/22 05:26:32;;;;;;;5.45;2.30;;;15.90;99.90;;;;;;4926140;29;20036;-82
2022/08/22 05:29:02;;;;;;;9.40;2.70;;;15.90;99.90;;;;;;4924765;29;20043;-83
2022/08/22 05:31:37;;;;;;;5.07;2.35;;;15.90;99.90;;;;;;4964097;28;20058;-84
2022/08/22 05:34:22;;;;;;;5.03;2.72;;;15.90;99.90;;;;;;5010667;28;20050;-84
2022/08/22 05:36:55;;;;;;;3.53;2.35;;;15.90;99.90;;;;;;5007810;28;20035;-83
2022/08/22 05:39:24;;;;;;;4.15;2.22;;;15.90;99.90;;;;;;5003228;28;20030;-84
2022/08/22 05:41:54;;;;;;;3.00;1.98;;;15.90;99.90;;;;;;4982397;28;20049;-83
2022/08/22 05:44:25;;;;;;;7.93;2.40;;;15.90;99.90;;;;;;5044264;23;20041;-88
2022/08/22 05:47:01;;;;;;;6.72;2.00;;;15.90;99.90;;;;;;5023781;28;20074;-86
2022/08/22 05:49:33;;;;;;;8.27;2.20;;;16.00;99.90;;;;;;5007409;28;20032;-86
2022/08/22 05:52:06;;;;;;;6.03;2.15;;;16.00;99.90;;;;;;5010213;28;20058;-87
2022/08/22 05:54:47;;;;;;;5.25;2.25;;;16.00;99.90;;;;;;5019671;28;20085;-84
2022/08/22 05:57:27;;;;;;;4.22;2.30;;;16.00;99.90;;;;;;5016942;28;20041;-85
2022/08/22 06:00:01;;;;;;;2.42;2.10;;;16.10;99.90;;;;;;5015646;28;20034;-86
2022/08/22 06:03:03;;;;;;;3.20;2.47;;;16.00;99.90;;;;;;5000227;28;20086;-87
2022/08/22 06:05:33;;;;;;;2.92;1.90;;;16.00;99.90;;;;;;4996864;28;20038;-87
2022/08/22 06:08:13;;;;;;;7.18;2.30;;;16.10;99.90;;;;;;4980331;28;20007;-84
2022/08/22 06:10:41;;;;;;;2.38;1.73;;;16.10;99.90;;;;;;5010744;28;20438;-86
2022/08/22 06:13:37;;;;;;;7.97;2.42;;;16.10;99.90;;;;;;5019519;28;20006;-87
2022/08/22 06:16:15;;;;;;;3.75;2.13;;;16.10;99.90;;;;;;4981972;28;20050;-86
2022/08/22 06:18:43;;;;;;;4.68;2.20;;;16.10;99.90;;;;;;5016776;28;20038;-86
2022/08/22 06:21:17;;;;;;;4.07;2.00;;;16.10;99.90;;;;;;5000144;28;20034;-87
2022/08/22 06:23:57;;;;;;;5.85;2.53;;;16.10;99.90;;;;;;5016252;28;20081;-87
2022/08/22 06:26:27;;;;;;;5.63;2.58;;;16.20;99.90;;;;;;5016953;28;20029;-86
2022/08/22 06:28:58;;;;;;;4.53;2.42;;;16.20;99.90;;;;;;4999291;28;20034;-87
2022/08/22 06:31:34;;;;;;;3.25;2.50;;;16.20;99.90;;;;;;5015921;28;20045;-87
2022/08/22 06:34:12;;;;;;;7.65;2.70;;;16.20;99.90;;;;;;4982225;28;20057;-87
2022/08/22 06:36:42;;;;;;;4.05;2.30;;;16.20;99.90;;;;;;4999505;28;20359;-87
2022/08/22 06:39:26;;;;;;;4.60;2.72;;;16.20;99.90;;;;;;5015316;28;20042;-87
2022/08/22 06:41:58;;;;;;;4.40;2.87;;;16.20;99.90;;;;;;5016468;28;20026;-88
2022/08/22 06:44:33;;;;;;;8.10;2.80;;;16.20;99.90;;;;;;4997610;28;20011;-87
2022/08/22 06:47:03;;;;;;;5.38;2.85;;;16.30;99.90;;;;;;5016993;28;20053;-86
2022/08/22 06:49:34;;;;;;;4.63;2.40;;;16.30;99.90;;;;;;5018244;28;20042;-86
2022/08/22 06:52:06;;;;;;;6.75;2.70;;;16.30;99.90;;;;;;5001001;28;20095;-87
2022/08/22 06:54:36;;;;;;;6.57;2.50;;;16.30;99.90;;;;;;5017828;28;20038;-86
2022/08/22 06:57:03;;;;;;;5.18;2.42;;;16.40;99.90;;;;;;4998939;28;20041;-87
2022/08/22 06:59:34;;;;;;;6.10;2.85;;;16.30;99.90;;;;;;4999308;28;20038;-85
2022/08/22 07:02:20;;;;;;;6.13;2.78;;;16.40;99.90;;;;;;5019755;28;20026;-86
2022/08/22 07:04:48;;;;;;;3.22;2.30;;;16.40;99.90;;;;;;5019801;28;20049;-86
2022/08/22 07:07:18;;;;;;;6.05;2.53;;;16.40;99.90;;;;;;5019562;28;20086;-85
2022/08/22 07:09:49;;;;;;;5.07;2.38;;;16.50;99.90;;;;;;5001573;28;20053;-86
2022/08/22 07:12:25;;;;;;;9.43;2.75;;;16.50;99.90;;;;;;4997672;28;20039;-87
2022/08/22 07:14:53;;;;;;;6.07;2.58;;;16.60;99.90;;;;;;4997436;28;20043;-87
2022/08/22 07:17:31;;;;;;;4.63;2.45;;;16.60;99.90;;;;;;4981126;28;20271;-85
2022/08/22 07:20:06;;;;;;;5.32;2.60;;;16.70;99.90;;;;;;4996096;28;20026;-84
2022/08/22 07:22:35;;;;;;;5.45;2.60;;;16.80;99.90;;;;;;4981782;28;20107;-86
2022/08/22 07:25:13;;;;;;;3.15;2.10;;;16.80;99.90;;;;;;4996606;28;20011;-87
2022/08/22 07:28:08;;;;;;;4.15;2.17;;;16.90;99.90;;;;;;4981098;28;20102;-86
2022/08/22 07:30:57;;;;;;;3.63;2.40;;;17.00;99.90;;;;;;4959169;28;20095;-86
2022/08/22 07:33:32;;;;;;;5.55;2.30;;;17.10;99.90;;;;;;4978325;28;20058;-85
2022/08/22 07:36:04;;;;;;;5.72;3.00;;;17.20;99.90;;;;;;4995752;28;20026;-87
2022/08/22 07:38:46;;;;;;;3.88;2.10;;;17.20;99.90;;;;;;4996546;28;20039;-86
2022/08/22 07:41:25;;;;;;;2.97;2.03;;;17.20;99.90;;;;;;4999754;28;20022;-83
2022/08/22 07:44:01;;;;;;;4.20;2.00;;;17.20;99.90;;;;;;4999710;28;20015;-84
2022/08/22 07:46:36;;;;;;;3.97;2.42;;;17.30;99.90;;;;;;4998947;28;20039;-84
2022/08/22 07:49:19;;;;;;;4.30;2.60;;;17.30;99.90;;;;;;4980884;28;20038;-86
2022/08/22 07:51:51;;;;;;;1.95;1.60;;;17.40;99.90;;;;;;4981854;28;20274;-85
2022/08/22 07:54:23;;;;;;;2.63;1.90;;;17.40;99.90;;;;;;4982951;28;20038;-84
2022/08/22 07:56:59;;;;;;;2.65;1.80;;;17.40;99.90;;;;;;4982854;28;20019;-82
2022/08/22 07:59:28;;;;;;;2.30;1.60;;;17.40;99.90;;;;;;4999210;28;20034;-86
2022/08/22 08:01:58;;;;;;;2.83;2.10;;;17.40;99.90;;;;;;4982814;28;20041;-86
2022/08/22 08:04:32;;;;;;;4.13;1.88;;;17.50;99.90;;;;;;4982637;28;20026;-85
2022/08/22 08:07:01;;;;;;;3.08;1.85;;;17.50;99.90;;;;;;4999201;28;20062;-85
2022/08/22 08:09:37;;;;;;;3.92;1.63;;;17.60;99.90;;;;;;4997921;28;20031;-86
2022/08/22 08:12:04;;;;;;;3.03;1.80;;;17.70;99.90;;;;;;4991891;28;20027;-85
2022/08/22 08:14:34;;;;;;;1.63;1.50;;;17.80;99.90;;;;;;4988406;28;20038;-86
2022/08/22 08:17:27;;;;;;;2.20;1.60;;;17.80;99.90;;;;;;4991946;28;20062;-85
2022/08/22 08:19:56;;;;;;;5.93;1.67;;;17.80;99.90;;;;;;4991272;28;20043;-86
2022/08/22 08:22:24;;;;;;;3.03;1.92;;;17.80;99.90;;;;;;4989546;28;20027;-85
2022/08/22 08:24:53;;;;;;;2.65;1.98;;;17.80;99.90;;;;;;4998030;28;20023;-84
2022/08/22 08:30:22;;;;;;;3.67;2.08;;;17.70;99.90;;;;;;5007332;28;20034;-85
2022/08/22 08:32:53;;;;;;;4.72;1.73;;;17.70;99.90;;;;;;5008479;28;20086;-85
2022/08/22 08:35:23;;;;;;;2.30;1.65;;;17.70;99.90;;;;;;5007457;28;20037;-84
2022/08/22 08:37:55;;;;;;;5.20;2.25;;;17.60;99.90;;;;;;4973939;28;20034;-87
2022/08/22 08:40:56;;;;;;;3.55;1.90;;;17.50;99.90;;;;;;4970481;28;20034;-86
2022/08/22 08:43:58;;;;;;;3.78;1.65;;;17.50;99.90;;;;;;4975141;28;20073;-84
2022/08/22 08:46:43;;;;;;;7.28;1.95;;;17.40;99.90;;;;;;5005666;28;20027;-84
2022/08/22 08:49:34;;;;;;;3.42;1.50;;;17.40;99.90;;;;;;4970561;28;20034;-84
2022/08/22 08:52:21;;;;;;;2.08;1.38;;;17.30;99.90;;;;;;5011773;28;20050;-85
2022/08/22 08:54:53;;;;;;;1.60;1.00;;;17.30;99.90;;;;;;4998025;28;20026;-85
2022/08/22 08:57:19;;;;;;;3.60;1.33;;;17.30;99.90;;;;;;4998760;28;20133;-86
2022/08/22 08:59:59;;;;;;;2.33;1.30;;;17.30;99.90;;;;;;5015473;28;20061;-86
2022/08/22 09:02:31;;;;;;;2.28;1.30;;;17.20;99.90;;;;;;4997974;28;20065;-86
2022/08/22 09:05:28;;;;;;;1.75;1.23;;;17.20;99.90;;;;;;5014165;28;20081;-86
2022/08/22 09:08:05;;;;;;;1.30;0.95;;;17.30;99.90;;;;;;5011813;28;20113;-85
2022/08/22 09:10:40;;;;;;;2.53;1.00;;;17.30;99.90;;;;;;4994786;28;20031;-86
2022/08/22 09:13:24;;;;;;;1.58;1.23;;;17.40;99.90;;;;;;5012463;28;20022;-85
2022/08/22 09:16:14;;;;;;;3.33;1.58;;;17.40;99.90;;;;;;5017823;28;20025;-86
2022/08/22 09:18:58;;;;;;;1.70;0.95;;;17.40;99.90;;;;;;4998723;28;20058;-84
2022/08/22 09:22:02;;;;;;;2.25;1.20;;;17.50;99.90;;;;;;5016689;28;20026;-85
2022/08/22 09:24:51;;;;;;;4.18;1.38;;;17.50;99.90;;;;;;4997726;28;20080;-84
2022/08/22 09:27:38;;;;;;;1.80;0.80;;;17.60;99.90;;;;;;5015463;28;20018;-86
2022/08/22 09:30:08;;;;;;;1.63;0.98;;;17.70;99.90;;;;;;5006391;28;20050;-85
2022/08/22 09:32:41;;;;;;;2.20;1.00;;;17.80;99.90;;;;;;4987405;28;20030;-87
2022/08/22 09:35:12;;;;;;;2.05;1.25;;;17.80;99.90;;;;;;5001341;28;20030;-86
2022/08/22 09:37:52;;;;;;;1.55;1.10;;;17.90;99.90;;;;;;5003544;28;20046;-87
2022/08/22 09:40:39;;;;;;;1.38;0.88;;;17.90;99.90;;;;;;5007188;28;20065;-85
2022/08/22 09:43:23;;;;;;;1.02;0.80;;;17.90;99.90;;;;;;4974080;28;20034;-87
2022/08/22 09:46:17;;;;;;;1.27;0.95;;;17.90;99.90;;;;;;4991867;28;20066;-85
2022/08/22 09:48:43;;;;;;;0.95;0.85;;;17.90;99.90;;;;;;5007930;28;20098;-85
2022/08/22 09:51:33;;;;;;;2.78;1.15;;;17.90;99.90;;;;;;4989978;28;20026;-88
2022/08/22 09:54:30;;;;;;;2.58;1.13;;;18.00;99.90;;;;;;4994352;28;20026;-88
2022/08/22 09:56:59;;;;;;;1.48;0.85;;;17.90;99.90;;;;;;4991483;28;20040;-87
2022/08/22 09:59:31;;;;;;;2.50;0.90;;;17.80;99.90;;;;;;5010763;28;20026;-85
2022/08/22 10:02:08;;;;;;;1.50;0.93;;;17.70;99.90;;;;;;5010621;28;20076;-87
2022/08/22 10:04:57;;;;;;;0.95;0.80;;;17.70;99.90;;;;;;5010623;28;20030;-87
2022/08/22 10:07:29;;;;;;;1.75;1.10;;;17.70;99.90;;;;;;4991278;28;20034;-87
2022/08/22 10:10:33;;;;;;;1.27;1.08;;;17.70;99.90;;;;;;4990627;28;20417;-87
2022/08/22 10:13:19;;;;;;;1.23;1.08;;;17.80;99.90;;;;;;4990444;28;20389;-87
2022/08/22 10:16:05;;;;;;;3.13;1.25;;;18.00;99.90;;;;;;4989685;28;20034;-85
2022/08/22 10:18:49;;;;;;;1.88;1.02;;;18.20;99.90;;;;;;4993319;28;20041;-86
2022/08/22 10:21:41;;;;;;;1.57;0.87;;;18.10;99.90;;;;;;4990167;28;20117;-86
2022/08/22 10:24:38;;;;;;;1.17;1.00;;;18.00;99.90;;;;;;5007298;28;20026;-86
2022/08/22 10:27:16;;;;;;;0.90;0.80;;;17.90;99.90;;;;;;4989831;28;20034;-85
2022/08/22 10:29:48;;;;;;;1.30;1.20;;;17.90;99.90;;;;;;5006916;28;20037;-85
2022/08/22 10:32:26;;;;;;;0.70;0.70;;;18.00;99.90;;;;;;5008243;28;20359;-84
2022/08/22 10:35:02;;;;;;;2.97;0.95;;;18.00;99.90;;;;;;4973556;28;20134;-85
2022/08/22 10:37:56;;;;;;;1.75;0.70;;;18.10;99.90;;;;;;4974697;28;20042;-87
2022/08/22 10:40:50;;;;;;;0.60;0.60;;;18.00;99.90;;;;;;4988314;28;20034;-87
2022/08/22 10:43:28;;;;;;;2.70;0.60;;;18.00;99.90;;;;;;4987803;28;20061;-85
2022/08/22 10:46:21;;;;;;;5.20;0.90;;;17.90;99.90;;;;;;5004943;28;20064;-86
2022/08/22 10:49:11;;;;;;;0.65;0.65;;;17.90;99.90;;;;;;4986998;28;20042;-86
2022/08/22 10:51:58;;;;;;;1.73;1.10;;;17.80;99.90;;;;;;5010482;28;20045;-86
2022/08/22 10:54:31;;;;;;;1.40;0.70;;;17.70;99.90;;;;;;5000353;28;20022;-87
2022/08/22 10:57:00;;;;;;;0.60;0.60;;;17.70;99.90;;;;;;5016006;28;20034;-88
2022/08/22 10:59:50;;;;;;;1.27;0.65;;;17.50;99.90;;;;;;4975579;28;20042;-88
2022/08/22 11:02:34;;;;;;;0.85;0.70;;;17.60;99.90;;;;;;4988718;28;20037;-89
2022/08/22 11:05:21;;;;;;;1.75;0.93;;;17.60;99.90;;;;;;4994959;28;20033;-86
2022/08/22 11:08:24;;;;;;;1.52;1.10;;;17.60;99.90;;;;;;4974440;28;20065;-85
2022/08/22 11:11:07;;;;;;;7.90;1.17;;;17.60;99.90;;;;;;4980222;28;20039;-86
2022/08/22 11:13:51;;;;;;;1.05;0.60;;;17.70;99.90;;;;;;4982240;28;20022;-87
2022/08/22 11:17:08;;;;;;;4.18;0.80;;;17.80;99.90;;;;;;4998685;28;20015;-86
2022/08/22 11:19:51;;;;;;;2.67;0.85;;;17.80;99.90;;;;;;4963652;28;20089;-87
2022/08/22 11:22:32;;;;;;;2.20;0.77;;;17.90;99.90;;;;;;4996944;28;20034;-87
2022/08/22 11:25:01;;;;;;;2.30;0.80;;;18.00;99.90;;;;;;4975805;28;20035;-86
2022/08/22 11:27:51;;;;;;;1.02;0.70;;;18.10;99.90;;;;;;4972878;28;20015;-87
2022/08/22 11:30:19;;;;;;;2.40;0.60;;;18.20;99.90;;;;;;4974534;28;20030;-88
2022/08/22 11:33:23;;;;;;;2.97;0.63;;;18.30;99.90;;;;;;4973327;28;20022;-86
2022/08/22 11:36:16;;;;;;;2.40;1.08;;;18.30;99.90;;;;;;4999993;28;20041;-86
2022/08/22 11:39:05;;;;;;;1.30;0.70;;;18.30;99.90;;;;;;5005857;28;20191;-88
2022/08/22 11:41:40;;;;;;;1.40;0.80;;;18.30;99.90;;;;;;4987330;28;20474;-87
2022/08/22 11:46:47;;;;;;;3.67;0.73;;;18.20;99.90;;;;;;4949054;29;20043;-77
2022/08/22 11:49:57;;;;;;;2.78;0.75;;;18.00;99.90;;;;;;4949584;29;20035;-77
2022/08/22 11:52:51;;;;;;;1.17;0.60;;;17.80;99.90;;;;;;4952719;29;20095;-77
2022/08/22 11:55:33;;;;;;;1.33;0.88;;;17.80;99.90;;;;;;4984491;28;20045;-78
2022/08/22 11:58:26;;;;;;;1.10;0.90;;;17.80;99.90;;;;;;4953013;29;20040;-76
2022/08/22 12:01:11;;;;;;;0.65;0.60;;;17.80;99.90;;;;;;4963785;28;20024;-80
2022/08/22 12:03:48;;;;;;;4.97;0.70;;;18.10;99.90;;;;;;4975644;28;20047;-77
2022/08/22 12:06:57;;;;;;;1.10;0.82;;;18.40;99.90;;;;;;4976457;29;20115;-77
2022/08/22 12:09:36;;;;;;;1.20;0.57;;;18.70;99.90;;;;;;4977807;29;20031;-77
2022/08/22 12:12:11;;;;;;;2.58;0.70;;;19.10;99.90;;;;;;4977383;29;20037;-78
2022/08/22 12:14:46;;;;;;;0.95;0.57;;;19.10;99.90;;;;;;4970165;29;20108;-79
2022/08/22 12:17:51;;;;;;;;;;;18.80;99.90;;;;;;4956926;29;20063;-79
2022/08/22 12:20:40;;;;;;;4.03;0.52;;;18.70;99.90;;;;;;4914730;29;19915;-76
2022/08/22 12:23:25;;;;;;;1.02;0.80;;;18.60;99.90;;;;;;4925782;29;20040;-79
2022/08/22 12:25:57;;;;;;;0.70;0.70;;;18.50;99.90;;;;;;4956243;29;20051;-77
2022/08/22 12:28:36;;;;;;;0.88;0.52;;;18.50;99.90;;;;;;4932017;29;20062;-78
2022/08/22 12:31:13;;;;;;;0.88;0.50;;;18.60;99.90;;;;;;4975434;28;20031;-77
2022/08/22 12:33:41;;;;;;;1.67;0.50;;;18.70;99.90;;;;;;4965633;29;20059;-78
2022/08/22 12:36:38;;;;;;;2.55;0.80;;;18.80;99.90;;;;;;4966422;29;20024;-78
2022/08/22 12:39:28;;;;;;;0.57;0.40;;;18.90;99.90;;;;;;4966704;29;20031;-75
2022/08/22 12:42:13;;;;;;;1.90;0.85;;;19.00;99.90;;;;;;4968885;29;20011;-77
2022/08/22 12:44:44;;;;;;;3.60;1.10;;;19.00;99.90;;;;;;4968093;28;20043;-77
2022/08/22 12:47:36;;;;;;;0.80;0.73;;;19.30;99.90;;;;;;4969775;29;20330;-77
2022/08/22 12:50:19;;;;;;;3.40;0.60;;;19.90;99.90;;;;;;4964741;28;20039;-79
2022/08/22 12:53:23;;;;;;;1.55;0.52;;;20.50;99.90;;;;;;4965387;29;20037;-77
2022/08/22 12:56:07;;;;;;;1.02;0.57;;;21.10;99.90;;;;;;4947799;29;20039;-76
2022/08/22 12:59:07;;;;;;;1.45;0.60;;;21.20;99.90;;;;;;4963423;29;20016;-77
2022/08/22 13:01:41;;;;;;;0.98;0.50;;;21.20;99.90;;;;;;4954470;29;20087;-78
2022/08/22 13:04:15;;;;;;;0.63;0.63;;;21.30;99.90;;;;;;4958059;29;20059;-78
2022/08/22 13:06:41;;;;;;;3.40;0.65;;;21.40;99.90;;;;;;4957344;29;20027;-79
2022/08/22 13:09:38;;;;;;;0.40;0.40;;;21.50;99.90;;;;;;4936216;29;20037;-77
2022/08/22 13:12:17;;;;;;;3.95;1.05;;;21.30;99.90;;;;;;4931553;29;20058;-79
2022/08/22 13:14:46;;;;;;;1.25;0.70;;;21.10;99.90;;;;;;4941412;29;20118;-78
2022/08/22 13:17:17;;;;;;;0.55;0.50;;;21.10;99.90;;;;;;4945642;29;20420;-79
2022/08/22 13:20:00;;;;;;;1.08;0.60;;;21.20;99.90;;;;;;4946122;29;20039;-79
2022/08/22 13:22:30;;;;;;;0.45;0.45;;;20.80;99.90;;;;;;4946695;29;20056;-82
2022/08/22 13:25:05;;;;;;;2.28;0.60;;;20.60;99.90;;;;;;4949087;29;20112;-80
2022/08/22 13:27:38;;;;;;;0.70;0.70;;;20.60;99.90;;;;;;4933169;29;20031;-80
2022/08/22 13:30:08;;;;;;;1.83;0.95;;;20.50;99.90;;;;;;4950378;29;20032;-81
2022/08/22 13:32:53;;;;;;;2.10;0.85;;;20.40;99.90;;;;;;4917549;29;20016;-80
2022/08/22 13:35:30;;;;;;;3.33;1.08;;;20.40;99.90;;;;;;4946116;29;20158;-79
2022/08/22 13:38:25;;;;;;;2.38;0.77;;;20.20;99.90;;;;;;4948450;29;20043;-80
2022/08/22 13:40:53;;;;;;;2.33;0.70;;;19.90;99.90;;;;;;4948374;29;20047;-79
2022/08/22 13:43:27;;;;;;;2.25;0.70;;;19.70;99.90;;;;;;4955417;29;20024;-78
2022/08/22 13:46:05;;;;;;;2.40;0.63;;;19.60;99.90;;;;;;4955585;29;20026;-78
2022/08/22 13:48:48;;;;;;;1.00;0.90;;;19.40;99.90;;;;;;4953534;29;20042;-78
2022/08/22 13:51:40;;;;;;;0.82;0.70;;;19.20;99.90;;;;;;4953945;29;20122;-78
2022/08/22 13:54:09;;;;;;;2.05;0.70;;;19.00;99.90;;;;;;4961238;29;20089;-78
2022/08/22 13:57:00;;;;;;;1.10;0.68;;;19.00;99.90;;;;;;4960269;29;20027;-78
2022/08/22 13:59:44;;;;;;;6.18;1.02;;;18.90;99.90;;;;;;4935633;29;20045;-79
2022/08/22 14:02:29;;;;;;;0.82;0.50;;;18.70;99.90;;;;;;4959333;29;20110;-77
2022/08/22 14:05:00;;;;;;;3.55;0.70;;;18.50;99.90;;;;;;4965395;29;20051;-75
2022/08/22 14:07:51;;;;;;;1.15;0.55;;;18.30;99.90;;;;;;4948880;29;20035;-75